Time;durP1;ratioP1;P1;durP2;ratioP2;P2;SDS_P1;SDS_P2;PMS_P1;PMS_P2;Temp;Humidity;BMP_temperature;BMP_pressure;BME280_temperature;BME280_humidity;BME280_pressure;Samples;Min_cycle;Max_cycle;Signal;HPM_P1;HPM_P2
2023/03/28 00:00:47;;;;;;;7.95;1.40;;;0.40;99.90;;;;;;5010656;28;20361;-75
2023/03/28 00:03:17;;;;;;;12.75;2.10;;;0.40;99.90;;;;;;5008097;28;20537;-75
2023/03/28 00:05:47;;;;;;;10.52;1.52;;;0.40;99.90;;;;;;5008314;28;20383;-75
2023/03/28 00:08:13;;;;;;;4.53;1.23;;;0.40;99.90;;;;;;5007925;28;20029;-75
2023/03/28 00:10:39;;;;;;;6.95;1.42;;;0.40;99.90;;;;;;5001103;28;20026;-74
2023/03/28 00:13:04;;;;;;;8.63;0.90;;;0.40;99.90;;;;;;4999829;28;20057;-74
2023/03/28 00:15:30;;;;;;;10.85;1.33;;;0.40;99.90;;;;;;5005330;28;20033;-75
2023/03/28 00:17:59;;;;;;;13.07;1.38;;;0.50;99.90;;;;;;5007556;28;20169;-75
2023/03/28 00:20:26;;;;;;;9.75;1.60;;;0.40;99.90;;;;;;5002214;28;20019;-75
2023/03/28 00:22:53;;;;;;;14.23;1.27;;;0.40;99.90;;;;;;5012103;28;20026;-75
2023/03/28 00:25:19;;;;;;;8.02;1.27;;;0.40;99.90;;;;;;5008164;28;20024;-74
2023/03/28 00:27:45;;;;;;;9.18;1.77;;;0.40;99.90;;;;;;5009577;28;20371;-74
2023/03/28 00:30:11;;;;;;;7.15;1.40;;;0.40;99.90;;;;;;5039295;28;20125;-75
2023/03/28 00:32:36;;;;;;;8.15;1.23;;;0.40;99.90;;;;;;5011757;28;20072;-75
2023/03/28 00:35:03;;;;;;;7.75;0.93;;;0.40;99.90;;;;;;5009166;28;20046;-75
2023/03/28 00:37:30;;;;;;;11.45;0.93;;;0.40;99.90;;;;;;5002048;28;20589;-75
2023/03/28 00:39:56;;;;;;;7.45;1.33;;;0.30;99.90;;;;;;5009459;28;20033;-74
2023/03/28 00:42:22;;;;;;;7.95;1.30;;;0.30;99.90;;;;;;5008107;28;20367;-75
2023/03/28 00:44:56;;;;;;;9.18;1.23;;;0.30;99.90;;;;;;5007656;28;20041;-74
2023/03/28 00:47:32;;;;;;;13.98;1.75;;;0.30;99.90;;;;;;5006723;28;20022;-75
2023/03/28 00:50:02;;;;;;;6.95;1.13;;;0.20;99.90;;;;;;5012577;28;20079;-75
2023/03/28 00:52:33;;;;;;;6.82;1.25;;;0.20;99.90;;;;;;5005398;28;20027;-75
2023/03/28 00:54:59;;;;;;;7.90;1.20;;;0.20;99.90;;;;;;5010609;28;20044;-74
2023/03/28 00:57:26;;;;;;;11.25;1.48;;;0.20;99.90;;;;;;5009018;28;20097;-75
2023/03/28 00:59:52;;;;;;;12.27;1.65;;;0.20;99.90;;;;;;5007501;28;20054;-74
2023/03/28 01:02:19;;;;;;;8.40;1.35;;;0.20;99.90;;;;;;5011551;28;20061;-75
2023/03/28 01:04:56;;;;;;;15.25;2.70;;;0.20;99.90;;;;;;5012598;28;20474;-75
2023/03/28 01:07:23;;;;;;;13.63;1.50;;;0.20;99.90;;;;;;5010747;28;20017;-75
2023/03/28 01:09:50;;;;;;;8.65;1.27;;;0.20;99.90;;;;;;5012021;28;20510;-75
2023/03/28 01:12:18;;;;;;;14.93;2.97;;;0.10;99.90;;;;;;5004429;28;20433;-75
2023/03/28 01:14:45;;;;;;;10.43;1.77;;;0.10;99.90;;;;;;5010812;28;20044;-75
2023/03/28 01:17:11;;;;;;;13.07;1.55;;;0.10;99.90;;;;;;5009601;28;20459;-75
2023/03/28 01:20:04;;;;;;;7.80;1.20;;;0.10;99.90;;;;;;5002893;28;20034;-75
2023/03/28 01:23:05;;;;;;;10.00;1.58;;;0.10;99.90;;;;;;5003947;28;20088;-75
2023/03/28 01:25:46;;;;;;;7.28;1.50;;;0.20;99.90;;;;;;4998776;28;20459;-75
2023/03/28 01:28:30;;;;;;;9.40;1.40;;;0.10;99.90;;;;;;5007934;28;20032;-75
2023/03/28 01:31:23;;;;;;;10.15;1.38;;;0.20;99.90;;;;;;5008040;28;20030;-75
2023/03/28 01:34:22;;;;;;;10.23;1.42;;;0.20;99.90;;;;;;5005753;28;20040;-75
2023/03/28 01:36:55;;;;;;;6.97;1.30;;;0.20;99.90;;;;;;5009088;28;20492;-75
2023/03/28 01:39:41;;;;;;;8.40;2.28;;;0.20;99.90;;;;;;5005131;28;20023;-75
2023/03/28 01:42:30;;;;;;;13.85;1.30;;;0.20;99.90;;;;;;5008904;28;20018;-74
2023/03/28 01:45:05;;;;;;;13.70;3.40;;;0.10;99.90;;;;;;5006800;28;20391;-75
2023/03/28 01:47:38;;;;;;;7.70;1.23;;;0.10;99.90;;;;;;5015536;28;20032;-75
2023/03/28 01:50:04;;;;;;;12.27;2.38;;;0.10;99.90;;;;;;5009068;28;20713;-75
2023/03/28 01:52:42;;;;;;;7.15;1.77;;;0.00;99.90;;;;;;5007563;28;20034;-75
2023/03/28 01:55:17;;;;;;;5.18;1.90;;;0.00;99.90;;;;;;5012370;28;20034;-75
2023/03/28 01:57:55;;;;;;;10.70;1.90;;;0.00;99.90;;;;;;5010068;28;20053;-75
2023/03/28 02:00:36;;;;;;;12.48;1.95;;;0.00;99.90;;;;;;5008087;28;20040;-75
2023/03/28 02:03:17;;;;;;;5.93;1.80;;;-0.10;99.90;;;;;;5008325;28;20030;-76
2023/03/28 02:05:46;;;;;;;12.25;1.63;;;-0.10;99.90;;;;;;5008258;28;20022;-75
2023/03/28 02:08:13;;;;;;;12.52;2.30;;;-0.10;99.90;;;;;;5011227;28;20029;-75
2023/03/28 02:10:41;;;;;;;10.55;2.67;;;-0.10;99.90;;;;;;5010685;28;20029;-75
2023/03/28 02:13:14;;;;;;;10.45;3.10;;;-0.10;99.90;;;;;;5039111;28;20510;-75
2023/03/28 02:15:43;;;;;;;8.95;1.92;;;-0.10;99.90;;;;;;4999289;28;20041;-75
2023/03/28 02:18:19;;;;;;;10.52;1.70;;;-0.10;99.90;;;;;;5006540;28;20034;-75
2023/03/28 02:20:51;;;;;;;12.60;2.20;;;-0.10;99.90;;;;;;5009727;28;20101;-74
2023/03/28 02:23:31;;;;;;;8.80;2.08;;;-0.10;99.90;;;;;;4998426;28;20049;-75
2023/03/28 02:25:57;;;;;;;12.18;2.00;;;-0.10;99.90;;;;;;5008440;28;20052;-75
2023/03/28 02:28:23;;;;;;;9.35;1.77;;;-0.20;99.90;;;;;;5001360;28;20029;-75
2023/03/28 02:30:50;;;;;;;8.90;1.60;;;-0.20;99.90;;;;;;5010353;28;20045;-75
2023/03/28 02:33:37;;;;;;;11.25;1.70;;;-0.20;99.90;;;;;;5006493;28;20026;-75
2023/03/28 02:36:27;;;;;;;12.50;2.50;;;-0.20;99.90;;;;;;5001652;28;20784;-75
2023/03/28 02:38:56;;;;;;;9.32;1.63;;;-0.20;99.90;;;;;;4998303;28;20138;-74
2023/03/28 02:41:40;;;;;;;12.10;1.77;;;-0.30;99.90;;;;;;5007860;28;20421;-75
2023/03/28 02:44:42;;;;;;;7.15;1.40;;;-0.30;99.90;;;;;;5004097;28;20113;-74
2023/03/28 02:47:18;;;;;;;9.93;1.98;;;-0.30;99.90;;;;;;5002524;28;20025;-75
2023/03/28 02:49:54;;;;;;;9.45;1.55;;;-0.30;99.90;;;;;;5010682;28;20430;-75
2023/03/28 02:52:57;;;;;;;11.35;2.70;;;-0.40;99.90;;;;;;5001549;28;20034;-76
2023/03/28 02:55:46;;;;;;;10.43;1.45;;;-0.40;99.90;;;;;;4999058;28;20033;-75
2023/03/28 02:58:20;;;;;;;14.00;1.75;;;-0.40;99.90;;;;;;4996203;28;20117;-75
2023/03/28 03:00:47;;;;;;;12.05;1.90;;;-0.40;99.90;;;;;;5010436;28;20033;-75
2023/03/28 03:03:14;;;;;;;10.27;2.20;;;-0.40;99.90;;;;;;4995026;28;20026;-76
2023/03/28 03:05:40;;;;;;;6.65;2.05;;;-0.40;99.90;;;;;;5009223;28;20490;-75
2023/03/28 03:08:06;;;;;;;7.88;1.92;;;-0.40;99.90;;;;;;5016460;28;20093;-74
2023/03/28 03:10:31;;;;;;;7.22;1.58;;;-0.40;99.90;;;;;;5000377;28;20129;-75
2023/03/28 03:12:57;;;;;;;7.50;1.52;;;-0.40;99.90;;;;;;4992728;28;20053;-75
2023/03/28 03:15:24;;;;;;;8.02;1.30;;;-0.40;99.90;;;;;;4992226;28;20113;-75
2023/03/28 03:17:51;;;;;;;12.90;1.85;;;-0.40;99.90;;;;;;5003275;28;20073;-75
2023/03/28 03:20:17;;;;;;;14.57;1.75;;;-0.40;99.90;;;;;;5009549;28;20147;-75
2023/03/28 03:22:43;;;;;;;6.63;2.15;;;-0.40;99.90;;;;;;5010793;28;20673;-75
2023/03/28 03:25:09;;;;;;;12.73;1.67;;;-0.40;99.90;;;;;;5005561;28;20030;-74
2023/03/28 03:27:36;;;;;;;13.02;2.63;;;-0.40;99.90;;;;;;5006749;28;20022;-75
2023/03/28 03:30:03;;;;;;;11.75;2.60;;;-0.40;99.90;;;;;;5008134;28;20036;-75
2023/03/28 03:32:28;;;;;;;10.85;2.38;;;-0.40;99.90;;;;;;5004601;28;20022;-75
2023/03/28 03:34:54;;;;;;;9.93;2.38;;;-0.40;99.90;;;;;;4998167;28;20046;-75
2023/03/28 03:37:20;;;;;;;17.27;2.40;;;-0.40;99.90;;;;;;5008519;28;20120;-76
2023/03/28 03:39:45;;;;;;;7.13;1.85;;;-0.40;99.90;;;;;;5008805;28;20105;-75
2023/03/28 03:42:11;;;;;;;10.30;2.50;;;-0.40;99.90;;;;;;5006579;28;20026;-75
2023/03/28 03:44:37;;;;;;;8.32;1.75;;;-0.40;99.90;;;;;;5003297;28;20030;-75
2023/03/28 03:47:04;;;;;;;10.25;2.20;;;-0.40;99.90;;;;;;5010111;28;20018;-74
2023/03/28 03:49:29;;;;;;;8.38;2.10;;;-0.50;99.90;;;;;;5008838;28;20035;-75
2023/03/28 03:51:55;;;;;;;9.38;2.63;;;-0.50;99.90;;;;;;5009797;28;20069;-75
2023/03/28 03:54:20;;;;;;;16.50;2.60;;;-0.50;99.90;;;;;;5007108;28;20088;-75
2023/03/28 03:56:47;;;;;;;9.05;2.08;;;-0.60;99.90;;;;;;5004852;28;20023;-74
2023/03/28 03:59:13;;;;;;;12.20;2.85;;;-0.60;99.90;;;;;;4997714;28;20027;-75
2023/03/28 04:01:40;;;;;;;13.63;3.60;;;-0.60;99.90;;;;;;5013743;28;20521;-75
2023/03/28 04:04:08;;;;;;;13.57;2.80;;;-0.60;99.90;;;;;;5013647;28;20060;-75
2023/03/28 04:06:34;;;;;;;8.48;3.78;;;-0.70;99.90;;;;;;5011178;28;20029;-74
2023/03/28 04:09:00;;;;;;;12.15;2.63;;;-0.70;99.90;;;;;;5010027;28;20390;-75
2023/03/28 04:11:25;;;;;;;13.35;3.28;;;-0.70;99.90;;;;;;5014046;28;20025;-75
2023/03/28 04:13:51;;;;;;;11.95;4.45;;;-0.70;99.90;;;;;;5006714;28;20049;-74
2023/03/28 04:16:19;;;;;;;8.27;2.92;;;-0.70;99.90;;;;;;5010271;28;20018;-75
2023/03/28 04:18:49;;;;;;;10.88;2.80;;;-0.70;99.90;;;;;;5012619;28;20049;-75
2023/03/28 04:21:16;;;;;;;7.57;2.30;;;-0.80;99.90;;;;;;5009986;28;20470;-75
2023/03/28 04:23:42;;;;;;;11.45;3.20;;;-0.80;99.90;;;;;;5016067;28;20056;-74
2023/03/28 04:26:08;;;;;;;7.13;2.55;;;-0.80;99.90;;;;;;5011523;28;20053;-74
2023/03/28 04:28:34;;;;;;;8.27;2.83;;;-0.80;99.90;;;;;;5011742;28;20477;-75
2023/03/28 04:31:00;;;;;;;9.15;3.03;;;-0.80;99.90;;;;;;5006432;28;20781;-75
2023/03/28 04:33:32;;;;;;;11.38;2.97;;;-0.80;99.90;;;;;;5013562;28;20511;-75
2023/03/28 04:36:01;;;;;;;;;;;-0.80;99.90;;;;;;5010373;28;20029;-74
2023/03/28 04:38:30;;;;;;;14.38;2.80;;;-0.80;99.90;;;;;;5012634;28;19955;-75
2023/03/28 04:40:56;;;;;;;13.40;3.67;;;-0.80;99.90;;;;;;4998237;28;20045;-75
2023/03/28 04:43:25;;;;;;;9.98;2.60;;;-0.80;99.90;;;;;;4999284;28;20499;-74
2023/03/28 04:45:52;;;;;;;12.10;3.78;;;-0.80;99.90;;;;;;5000768;28;20037;-75
2023/03/28 04:48:19;;;;;;;10.13;2.40;;;-0.80;99.90;;;;;;5005905;28;20044;-75
2023/03/28 04:50:44;;;;;;;7.97;2.42;;;-0.80;99.90;;;;;;5011403;28;20076;-75
2023/03/28 04:53:11;;;;;;;9.23;2.80;;;-0.80;99.90;;;;;;4995554;28;20075;-75
2023/03/28 04:55:37;;;;;;;9.73;2.83;;;-0.80;99.90;;;;;;5007049;28;20057;-75
2023/03/28 04:58:04;;;;;;;14.00;2.90;;;-0.80;99.90;;;;;;5002977;28;20466;-75
2023/03/28 05:00:30;;;;;;;11.23;2.83;;;-0.80;99.90;;;;;;5001040;28;20035;-75
2023/03/28 05:02:58;;;;;;;8.20;2.63;;;-0.80;99.90;;;;;;5008921;28;20025;-74
2023/03/28 05:05:24;;;;;;;9.10;3.08;;;-0.80;99.90;;;;;;4998654;28;20022;-75
2023/03/28 05:07:50;;;;;;;5.82;2.25;;;-0.80;99.90;;;;;;5007769;28;20045;-75
2023/03/28 05:10:16;;;;;;;11.63;3.05;;;-0.80;99.90;;;;;;5005356;28;20057;-75
2023/03/28 05:12:41;;;;;;;8.32;2.67;;;-0.80;99.90;;;;;;5010513;28;20065;-75
2023/03/28 05:15:07;;;;;;;11.20;2.92;;;-0.80;99.90;;;;;;5013647;28;20537;-75
2023/03/28 05:17:32;;;;;;;6.63;2.50;;;-0.80;99.90;;;;;;5012581;28;20526;-75
2023/03/28 05:19:58;;;;;;;8.23;2.95;;;-0.80;99.90;;;;;;5011174;28;20044;-75
2023/03/28 05:22:24;;;;;;;10.13;2.85;;;-0.80;99.90;;;;;;5008434;28;20018;-76
2023/03/28 05:24:49;;;;;;;5.93;2.38;;;-0.80;99.90;;;;;;5011683;28;20128;-75
2023/03/28 05:27:16;;;;;;;6.93;2.67;;;-0.80;99.90;;;;;;5000965;28;20096;-76
2023/03/28 05:29:41;;;;;;;7.80;3.17;;;-0.80;99.90;;;;;;5013214;28;20101;-75
2023/03/28 05:32:07;;;;;;;8.85;2.30;;;-0.80;99.90;;;;;;5005775;28;20121;-75
2023/03/28 05:34:34;;;;;;;9.45;2.35;;;-0.80;99.90;;;;;;4999063;28;20095;-75
2023/03/28 05:37:00;;;;;;;12.32;2.42;;;-0.80;99.90;;;;;;5006486;28;20026;-75
2023/03/28 05:39:26;;;;;;;8.48;2.80;;;-0.70;99.90;;;;;;5009176;28;20106;-75
2023/03/28 05:41:52;;;;;;;13.15;3.53;;;-0.70;99.90;;;;;;5011004;28;20041;-74
2023/03/28 05:44:17;;;;;;;9.57;3.75;;;-0.70;99.90;;;;;;4997447;28;20034;-75
2023/03/28 05:46:43;;;;;;;11.20;3.63;;;-0.70;99.90;;;;;;4998507;28;20030;-75
2023/03/28 05:49:10;;;;;;;11.95;3.30;;;-0.60;99.90;;;;;;4999685;28;20026;-76
2023/03/28 05:51:36;;;;;;;13.18;3.40;;;-0.60;99.90;;;;;;5007158;28;20108;-75
2023/03/28 05:54:01;;;;;;;12.23;3.28;;;-0.50;99.90;;;;;;5011233;28;20045;-76
2023/03/28 05:56:27;;;;;;;11.93;3.47;;;-0.50;99.90;;;;;;5019752;28;20036;-75
2023/03/28 05:58:52;;;;;;;13.30;4.07;;;-0.50;99.90;;;;;;5011855;28;20037;-74
2023/03/28 06:01:26;;;;;;;14.32;3.42;;;-0.40;99.90;;;;;;5008531;28;20033;-74
2023/03/28 06:03:52;;;;;;;14.90;4.03;;;-0.40;99.90;;;;;;5004975;28;20045;-75
2023/03/28 06:06:19;;;;;;;12.63;3.97;;;-0.30;99.90;;;;;;5010719;28;20030;-74
2023/03/28 06:08:44;;;;;;;20.67;4.15;;;-0.30;99.90;;;;;;5010978;28;20080;-75
2023/03/28 06:11:10;;;;;;;10.98;4.32;;;-0.20;99.90;;;;;;5010293;28;20029;-75
2023/03/28 06:13:36;;;;;;;13.57;4.97;;;-0.20;99.90;;;;;;5005850;28;20057;-75
2023/03/28 06:16:01;;;;;;;14.90;4.30;;;-0.20;99.90;;;;;;5004044;28;20033;-75
2023/03/28 06:18:27;;;;;;;15.63;4.10;;;-0.10;99.90;;;;;;4996551;28;20022;-75
2023/03/28 06:20:53;;;;;;;8.80;4.63;;;0.00;99.90;;;;;;5006466;28;20065;-74
2023/03/28 06:23:19;;;;;;;12.32;5.30;;;0.00;99.90;;;;;;5007980;28;20048;-74
2023/03/28 06:25:45;;;;;;;9.73;5.10;;;0.10;99.90;;;;;;4999054;28;20026;-74
2023/03/28 06:28:10;;;;;;;16.13;6.10;;;0.10;99.90;;;;;;5012754;28;20034;-73
2023/03/28 06:30:38;;;;;;;19.67;6.22;;;0.20;99.90;;;;;;5010105;28;20029;-75
2023/03/28 06:33:04;;;;;;;18.23;7.40;;;0.30;99.90;;;;;;5005064;28;20037;-74
2023/03/28 06:35:31;;;;;;;16.08;8.25;;;0.30;99.90;;;;;;5010874;28;20560;-74
2023/03/28 06:37:57;;;;;;;12.20;7.13;;;0.40;99.90;;;;;;5003830;28;20026;-73
2023/03/28 06:40:23;;;;;;;15.85;8.57;;;0.50;99.90;;;;;;5029568;28;20036;-73
2023/03/28 06:42:48;;;;;;;18.67;8.40;;;0.60;99.90;;;;;;5008010;28;20032;-73
2023/03/28 06:45:14;;;;;;;15.85;8.88;;;0.80;99.90;;;;;;5004184;28;20378;-73
2023/03/28 06:47:40;;;;;;;15.35;9.90;;;0.90;99.90;;;;;;4996454;28;20489;-73
2023/03/28 06:50:06;;;;;;;18.88;9.52;;;1.00;99.90;;;;;;4996992;28;20025;-73
2023/03/28 06:52:32;;;;;;;19.65;10.07;;;1.20;99.90;;;;;;5011174;28;20036;-73
2023/03/28 06:54:57;;;;;;;17.73;9.15;;;1.30;99.90;;;;;;5008735;28;20038;-73
2023/03/28 06:57:24;;;;;;;21.88;11.18;;;1.50;99.90;;;;;;5001704;28;20026;-74
2023/03/28 06:59:51;;;;;;;14.75;9.05;;;1.60;99.90;;;;;;4997004;28;20041;-73
2023/03/28 07:02:16;;;;;;;16.38;9.50;;;1.80;99.90;;;;;;5008048;28;20347;-73
2023/03/28 07:04:42;;;;;;;21.42;12.18;;;1.90;99.90;;;;;;5001544;28;20133;-73
2023/03/28 07:07:08;;;;;;;21.20;10.50;;;2.00;99.90;;;;;;4994132;28;20034;-73
2023/03/28 07:09:35;;;;;;;19.80;11.00;;;2.10;99.90;;;;;;5010670;28;20037;-73
2023/03/28 07:12:00;;;;;;;24.05;10.45;;;2.20;99.90;;;;;;5010098;28;20622;-73
2023/03/28 07:14:26;;;;;;;17.45;9.52;;;2.20;99.90;;;;;;5007622;28;20175;-73
2023/03/28 07:16:52;;;;;;;17.05;9.48;;;2.20;99.90;;;;;;5007136;28;20026;-73
2023/03/28 07:19:17;;;;;;;21.50;10.02;;;2.20;99.90;;;;;;5004646;28;20037;-73
2023/03/28 07:21:43;;;;;;;22.13;10.32;;;2.20;99.90;;;;;;4998223;28;20034;-73
2023/03/28 07:24:08;;;;;;;23.25;9.75;;;2.20;99.90;;;;;;5011005;28;20040;-74
2023/03/28 07:26:34;;;;;;;20.35;9.70;;;2.30;99.90;;;;;;5002009;28;20096;-73
2023/03/28 07:29:00;;;;;;;18.70;10.18;;;2.30;99.90;;;;;;5005653;28;20393;-72
2023/03/28 07:31:25;;;;;;;22.65;9.88;;;2.40;99.90;;;;;;5008249;28;20030;-72
2023/03/28 07:33:51;;;;;;;19.73;9.48;;;2.50;99.90;;;;;;5004816;28;20367;-72
2023/03/28 07:36:19;;;;;;;23.23;10.02;;;2.70;99.90;;;;;;5003928;28;20106;-72
2023/03/28 07:38:45;;;;;;;19.05;9.32;;;2.80;99.90;;;;;;5006000;28;20029;-72
2023/03/28 07:41:11;;;;;;;18.65;9.93;;;2.90;99.90;;;;;;5014111;28;20029;-72
2023/03/28 07:43:38;;;;;;;14.10;8.73;;;3.00;99.90;;;;;;5013816;28;20429;-72
2023/03/28 07:46:06;;;;;;;18.75;9.57;;;3.10;99.90;;;;;;5014538;28;20053;-72
2023/03/28 07:48:34;;;;;;;19.23;9.57;;;3.30;99.90;;;;;;5012235;28;20025;-72
2023/03/28 07:51:00;;;;;;;18.52;9.98;;;3.40;99.90;;;;;;5009325;28;20421;-72
2023/03/28 07:53:26;;;;;;;15.68;9.30;;;3.50;99.90;;;;;;5001157;28;20034;-72
2023/03/28 07:55:52;;;;;;;21.65;8.00;;;3.60;99.90;;;;;;5007487;28;20466;-72
2023/03/28 07:58:18;;;;;;;15.25;8.05;;;3.70;99.90;;;;;;5002572;28;20121;-72
2023/03/28 08:00:44;;;;;;;13.38;7.55;;;3.90;99.90;;;;;;5012386;28;20393;-72
2023/03/28 08:03:14;;;;;;;15.55;6.03;;;4.00;99.90;;;;;;4995523;28;20022;-72
2023/03/28 08:05:40;;;;;;;17.80;6.50;;;4.00;99.90;;;;;;5009018;28;20116;-72
2023/03/28 08:08:06;;;;;;;14.20;7.38;;;4.20;99.90;;;;;;5008620;28;20101;-72
2023/03/28 08:10:32;;;;;;;21.23;6.43;;;4.30;99.90;;;;;;5010748;28;20041;-72
2023/03/28 08:12:58;;;;;;;14.68;5.53;;;4.40;99.90;;;;;;5013747;28;20564;-72
2023/03/28 08:15:23;;;;;;;13.05;6.00;;;4.50;99.90;;;;;;5013625;28;20030;-72
2023/03/28 08:17:49;;;;;;;14.77;5.43;;;4.70;99.90;;;;;;5008783;28;20081;-72
2023/03/28 08:20:15;;;;;;;8.60;4.53;;;4.80;99.90;;;;;;5003053;28;20095;-72
2023/03/28 08:22:40;;;;;;;10.43;4.45;;;5.00;99.90;;;;;;5009799;28;20034;-72
2023/03/28 08:25:07;;;;;;;11.90;4.72;;;5.20;99.90;;;;;;5008332;28;20128;-72
2023/03/28 08:27:33;;;;;;;11.90;3.80;;;5.30;99.90;;;;;;5011854;28;20025;-73
2023/03/28 08:29:58;;;;;;;11.73;3.60;;;5.40;99.90;;;;;;5008842;28;20088;-72
2023/03/28 08:32:25;;;;;;;13.00;4.95;;;5.50;99.90;;;;;;5012223;28;20027;-72
2023/03/28 08:34:51;;;;;;;10.57;4.32;;;5.50;99.90;;;;;;5008223;28;20057;-72
2023/03/28 08:37:17;;;;;;;10.18;4.18;;;5.50;99.90;;;;;;5035081;28;20080;-72
2023/03/28 08:39:43;;;;;;;9.60;3.80;;;5.60;99.90;;;;;;5009890;28;20052;-72
2023/03/28 08:42:42;;;;;;;14.57;4.70;;;5.60;99.90;;;;;;5011457;28;20394;-73
2023/03/28 08:45:27;;;;;;;13.52;3.80;;;5.70;99.90;;;;;;5008224;28;20038;-72
2023/03/28 08:48:17;;;;;;;13.43;3.80;;;5.80;99.90;;;;;;5001539;28;20026;-72
2023/03/28 08:50:49;;;;;;;13.80;3.75;;;5.90;99.90;;;;;;5040503;28;20518;-72
2023/03/28 08:53:34;;;;;;;10.57;4.22;;;6.00;99.90;;;;;;4995877;28;20101;-72
2023/03/28 08:56:02;;;;;;;17.08;3.95;;;6.10;99.90;;;;;;5006261;28;20030;-72
2023/03/28 08:58:36;;;;;;;13.52;3.38;;;6.20;99.90;;;;;;5013043;28;20022;-73
2023/03/28 09:01:02;;;;;;;11.77;3.63;;;6.30;99.90;;;;;;5004081;28;20026;-72
2023/03/28 09:03:28;;;;;;;7.20;3.00;;;6.40;99.90;;;;;;5007909;28;20033;-72
2023/03/28 09:06:15;;;;;;;9.48;2.35;;;6.50;99.90;;;;;;5007487;28;20026;-73
2023/03/28 09:09:28;;;;;;;9.40;2.83;;;6.60;99.90;;;;;;4998716;28;20096;-73
2023/03/28 09:12:23;;;;;;;9.13;1.58;;;6.50;99.90;;;;;;5009095;28;20033;-72
2023/03/28 09:15:19;;;;;;;5.70;1.48;;;6.60;99.90;;;;;;4998663;28;20042;-72
2023/03/28 09:17:55;;;;;;;7.38;1.38;;;6.70;99.90;;;;;;5009093;28;20068;-72
2023/03/28 09:20:37;;;;;;;6.03;1.30;;;6.80;99.90;;;;;;5011348;28;20043;-72
2023/03/28 09:23:17;;;;;;;7.18;1.73;;;6.90;99.90;;;;;;5013511;28;20036;-72
2023/03/28 09:26:13;;;;;;;7.03;1.58;;;7.00;99.90;;;;;;5011923;28;20030;-72
2023/03/28 09:29:02;;;;;;;7.68;1.13;;;7.00;99.90;;;;;;5002326;28;20653;-73
2023/03/28 09:31:33;;;;;;;11.63;2.45;;;7.10;99.90;;;;;;5012667;28;20030;-73
2023/03/28 09:34:01;;;;;;;8.98;1.60;;;7.10;99.90;;;;;;5012806;28;20038;-72
2023/03/28 09:36:36;;;;;;;6.82;1.50;;;7.20;99.90;;;;;;5012594;28;20076;-72
2023/03/28 09:39:17;;;;;;;5.00;1.15;;;7.20;99.90;;;;;;5008001;28;20022;-73
2023/03/28 09:42:26;;;;;;;6.00;1.50;;;7.30;99.90;;;;;;5005469;28;20382;-73
2023/03/28 09:45:29;;;;;;;7.50;1.55;;;7.30;99.90;;;;;;5009139;28;20406;-73
2023/03/28 09:47:55;;;;;;;7.07;1.38;;;7.30;99.90;;;;;;5003100;28;20026;-73
2023/03/28 09:50:21;;;;;;;5.25;1.63;;;7.40;99.90;;;;;;5012465;28;20026;-73
2023/03/28 09:52:50;;;;;;;7.30;1.00;;;7.40;99.90;;;;;;5001274;28;20026;-73
2023/03/28 09:55:22;;;;;;;12.10;1.20;;;7.50;99.90;;;;;;4996193;28;20038;-73
2023/03/28 09:58:08;;;;;;;7.05;1.08;;;7.40;99.90;;;;;;5006063;28;20527;-73
2023/03/28 10:00:40;;;;;;;6.85;1.25;;;7.50;99.90;;;;;;5004863;28;20516;-73
2023/03/28 10:03:21;;;;;;;;;;;7.60;99.90;;;;;;5009507;28;20022;-73
2023/03/28 10:05:50;;;;;;;9.15;1.20;;;7.60;99.90;;;;;;5003514;28;19948;-73
2023/03/28 10:08:21;;;;;;;7.38;0.85;;;7.70;99.90;;;;;;5006647;28;20021;-73
2023/03/28 10:11:12;;;;;;;6.18;0.80;;;7.80;99.90;;;;;;5005298;28;20045;-73
2023/03/28 10:13:56;;;;;;;3.38;1.05;;;7.90;99.90;;;;;;5011800;28;20402;-73
2023/03/28 10:16:27;;;;;;;3.72;0.80;;;8.00;99.90;;;;;;5004790;28;20030;-73
2023/03/28 10:18:53;;;;;;;3.63;0.77;;;8.00;99.90;;;;;;5043636;28;20037;-73
2023/03/28 10:21:29;;;;;;;6.72;1.05;;;8.00;99.90;;;;;;5011417;28;20018;-73
2023/03/28 10:24:00;;;;;;;4.78;0.90;;;8.10;99.90;;;;;;5009151;28;20536;-73
2023/03/28 10:26:27;;;;;;;9.35;1.00;;;8.10;99.90;;;;;;5011802;28;20416;-73
2023/03/28 10:28:56;;;;;;;5.38;0.77;;;8.10;99.90;;;;;;5012392;28;20037;-73
2023/03/28 10:31:30;;;;;;;7.18;1.02;;;8.20;99.90;;;;;;5002283;28;20021;-73
2023/03/28 10:33:58;;;;;;;6.38;0.98;;;8.10;99.90;;;;;;5006636;28;20042;-73
2023/03/28 10:36:38;;;;;;;3.45;0.57;;;8.10;99.90;;;;;;5003323;28;20023;-73
2023/03/28 10:39:21;;;;;;;6.43;0.70;;;8.10;99.90;;;;;;5011916;28;20499;-73
2023/03/28 10:41:54;;;;;;;4.80;0.70;;;8.20;99.90;;;;;;5007712;28;20026;-73
2023/03/28 10:44:39;;;;;;;4.00;0.30;;;8.10;99.90;;;;;;5002372;28;20046;-73
2023/03/28 10:47:10;;;;;;;2.70;0.40;;;8.10;99.90;;;;;;5011063;28;20021;-73
2023/03/28 10:49:46;;;;;;;5.90;0.43;;;8.00;99.90;;;;;;5007262;28;20028;-73
2023/03/28 10:52:39;;;;;;;4.43;0.52;;;8.00;99.90;;;;;;5011500;28;20056;-73
2023/03/28 10:55:09;;;;;;;3.65;0.60;;;8.00;99.90;;;;;;5006702;28;20042;-73
2023/03/28 10:57:54;;;;;;;7.15;0.77;;;8.00;99.90;;;;;;5003686;28;20026;-73
2023/03/28 11:00:46;;;;;;;4.85;1.40;;;8.10;99.90;;;;;;5001969;28;20034;-73
2023/03/28 11:03:47;;;;;;;4.70;0.80;;;8.20;99.90;;;;;;5000467;28;20029;-73
2023/03/28 11:06:46;;;;;;;5.25;0.82;;;8.20;99.90;;;;;;5018878;28;20031;-72
2023/03/28 11:09:40;;;;;;;5.43;0.68;;;8.10;99.90;;;;;;5004292;28;20022;-73
2023/03/28 11:12:18;;;;;;;7.93;0.80;;;8.10;99.90;;;;;;5006682;28;20069;-73
2023/03/28 11:15:07;;;;;;;4.80;0.88;;;8.20;99.90;;;;;;5003065;28;20048;-72
2023/03/28 11:18:00;;;;;;;3.75;0.80;;;8.40;99.90;;;;;;4999121;28;20054;-73
2023/03/28 11:20:33;;;;;;;6.22;0.73;;;8.60;99.90;;;;;;4995870;28;20116;-73
2023/03/28 11:23:19;;;;;;;6.97;1.13;;;8.80;99.90;;;;;;5007101;28;20022;-72
2023/03/28 11:25:56;;;;;;;3.80;0.80;;;8.80;99.90;;;;;;5010738;28;20029;-72
2023/03/28 11:28:50;;;;;;;5.32;0.73;;;8.80;99.90;;;;;;5010530;28;20134;-72
2023/03/28 11:31:44;;;;;;;6.25;0.85;;;8.80;99.90;;;;;;5010407;28;20022;-72
2023/03/28 11:34:21;;;;;;;3.47;0.75;;;8.80;99.90;;;;;;5009810;28;20069;-73
2023/03/28 11:36:52;;;;;;;5.35;1.17;;;8.80;99.90;;;;;;5011153;28;20029;-73
2023/03/28 11:39:30;;;;;;;6.90;1.10;;;8.80;99.90;;;;;;5008326;28;20022;-73
2023/03/28 11:41:59;;;;;;;7.03;1.10;;;8.90;99.90;;;;;;5010971;28;20105;-73
2023/03/28 11:44:32;;;;;;;5.00;0.90;;;9.00;99.90;;;;;;5010578;28;20113;-73
2023/03/28 11:47:15;;;;;;;4.00;1.00;;;9.10;99.90;;;;;;5011112;28;20058;-73
2023/03/28 11:50:16;;;;;;;6.63;0.80;;;9.20;99.90;;;;;;5010642;28;20359;-73
2023/03/28 11:52:50;;;;;;;5.05;0.75;;;9.30;99.90;;;;;;4991525;28;20026;-73
2023/03/28 11:55:21;;;;;;;5.40;0.98;;;9.40;99.60;;;;;;5007585;28;20123;-73
2023/03/28 11:58:01;;;;;;;7.43;0.93;;;9.40;98.60;;;;;;5011052;28;20029;-73
2023/03/28 12:00:38;;;;;;;5.10;0.73;;;9.40;98.00;;;;;;5002683;28;20030;-73
2023/03/28 12:03:18;;;;;;;2.60;0.60;;;9.40;97.60;;;;;;5009997;28;20042;-73
2023/03/28 12:05:53;;;;;;;4.88;0.93;;;9.50;97.20;;;;;;5009381;28;20107;-73
2023/03/28 12:08:46;;;;;;;6.20;0.82;;;9.50;97.20;;;;;;5010169;28;20092;-73
2023/03/28 12:11:37;;;;;;;7.65;1.05;;;9.60;96.90;;;;;;5012881;28;20033;-72
2023/03/28 12:14:26;;;;;;;4.40;1.30;;;9.70;96.50;;;;;;4994015;28;20073;-72
2023/03/28 12:16:54;;;;;;;7.07;0.90;;;9.70;96.20;;;;;;5006849;28;20160;-72
2023/03/28 12:19:35;;;;;;;4.60;0.70;;;9.70;96.70;;;;;;5012089;28;20109;-72
2023/03/28 12:22:31;;;;;;;6.53;0.90;;;9.80;95.80;;;;;;5005020;28;20137;-72
2023/03/28 12:25:12;;;;;;;6.65;0.90;;;9.90;95.80;;;;;;5020568;28;20029;-72
2023/03/28 12:28:04;;;;;;;3.92;0.90;;;9.90;95.00;;;;;;5004698;28;20022;-73
2023/03/28 12:30:34;;;;;;;5.90;0.88;;;10.00;95.30;;;;;;4999253;28;20040;-72
2023/03/28 12:33:37;;;;;;;4.40;0.73;;;10.00;95.20;;;;;;5026436;28;20026;-72
2023/03/28 12:36:17;;;;;;;4.45;0.73;;;10.10;95.10;;;;;;5002256;28;20030;-73
2023/03/28 12:39:03;;;;;;;5.18;0.75;;;10.20;94.20;;;;;;5019199;28;20034;-72
2023/03/28 12:41:35;;;;;;;2.75;0.80;;;10.20;93.60;;;;;;5010649;28;20097;-72
2023/03/28 12:44:28;;;;;;;2.83;0.80;;;10.20;93.40;;;;;;5009815;28;20109;-72
2023/03/28 12:47:07;;;;;;;5.78;0.63;;;10.20;92.70;;;;;;5008079;28;20038;-73
2023/03/28 12:49:55;;;;;;;6.18;0.88;;;10.10;91.60;;;;;;5012578;28;20069;-72
2023/03/28 12:52:32;;;;;;;3.30;0.90;;;10.20;91.60;;;;;;5006718;28;20026;-72
2023/03/28 12:55:00;;;;;;;3.85;0.68;;;10.30;91.40;;;;;;5013035;28;20578;-73
2023/03/28 12:57:42;;;;;;;4.57;0.63;;;10.40;91.30;;;;;;5010013;28;20026;-73
2023/03/28 13:00:25;;;;;;;9.38;1.20;;;10.60;90.50;;;;;;5012307;28;20022;-72
2023/03/28 13:03:04;;;;;;;6.03;0.80;;;10.50;89.50;;;;;;5021062;28;20110;-73
2023/03/28 13:06:01;;;;;;;2.35;0.70;;;10.40;88.90;;;;;;5008765;28;20099;-73
2023/03/28 13:09:06;;;;;;;5.00;0.70;;;10.40;88.60;;;;;;5009737;28;20030;-73
2023/03/28 13:12:06;;;;;;;6.05;0.80;;;10.30;89.30;;;;;;5010387;28;20053;-72
2023/03/28 13:14:36;;;;;;;5.82;0.90;;;10.40;89.20;;;;;;5009341;28;20046;-72
2023/03/28 13:17:20;;;;;;;7.90;0.90;;;10.50;87.50;;;;;;5010079;28;20097;-72